Time;durP1;ratioP1;P1;durP2;ratioP2;P2;SDS_P1;SDS_P2;PMS_P1;PMS_P2;Temp;Humidity;BMP_temperature;BMP_pressure;BME280_temperature;BME280_humidity;BME280_pressure;Samples;Min_cycle;Max_cycle;Signal;HPM_P1;HPM_P2
2021/06/26 00:00:51;;;;;;;19.60;5.80;;;;;;;23.21;53.22;99158.47;4960802;28;20099;-61
2021/06/26 00:03:17;;;;;;;17.75;5.78;;;;;;;23.27;53.32;99145.88;4960823;28;20047;-61
2021/06/26 00:05:43;;;;;;;14.40;5.40;;;;;;;23.27;53.13;99131.91;4959183;28;20051;-63
2021/06/26 00:08:09;;;;;;;20.88;6.05;;;;;;;23.25;53.27;99125.88;4961608;28;20055;-63
2021/06/26 00:10:36;;;;;;;13.65;4.95;;;;;;;23.22;53.34;99116.28;4962704;28;21531;-60
2021/06/26 00:13:03;;;;;;;15.20;5.78;;;;;;;23.20;53.22;99118.66;4960999;28;20055;-61
2021/06/26 00:15:31;;;;;;;20.48;5.72;;;;;;;23.25;53.66;99114.72;4957149;28;20054;-61
2021/06/26 00:17:57;;;;;;;19.40;5.15;;;;;;;23.23;53.61;99120.69;4944289;28;20058;-61
2021/06/26 00:20:23;;;;;;;15.98;5.80;;;;;;;23.27;53.21;99123.56;4962469;28;20054;-62
2021/06/26 00:22:54;;;;;;;22.95;5.88;;;;;;;23.29;53.49;99104.47;4945334;28;20106;-62
2021/06/26 00:25:22;;;;;;;15.93;6.20;;;;;;;23.33;53.65;99107.28;4960464;28;20164;-61
2021/06/26 00:27:49;;;;;;;15.18;5.85;;;;;;;23.31;53.18;99118.81;4951422;28;20097;-61
2021/06/26 00:30:15;;;;;;;16.23;5.90;;;;;;;23.21;53.74;99125.84;4959638;28;20165;-61
2021/06/26 00:32:43;;;;;;;11.60;6.30;;;;;;;23.28;53.77;99122.38;4959333;28;20062;-62
2021/06/26 00:35:10;;;;;;;21.63;6.97;;;;;;;23.31;53.67;99124.41;4959423;28;20043;-62
2021/06/26 00:37:36;;;;;;;;;;;;;;;23.32;53.47;99128.78;4961847;28;20073;-61
2021/06/26 00:40:04;;;;;;;21.13;6.13;;;;;;;23.30;53.37;99124.75;4961448;28;19926;-60
2021/06/26 00:42:33;;;;;;;18.85;6.13;;;;;;;23.29;53.49;99121.19;4944617;28;20511;-60
2021/06/26 00:44:59;;;;;;;29.00;6.13;;;;;;;23.28;53.72;99114.00;4930447;28;20058;-60
2021/06/26 00:47:26;;;;;;;18.35;6.00;;;;;;;23.32;53.47;99122.41;4963375;28;20047;-62
2021/06/26 00:49:53;;;;;;;;;;;;;;;23.34;53.60;99123.63;4961620;28;20050;-61
2021/06/26 00:52:19;;;;;;;17.35;5.55;;;;;;;23.37;53.56;99111.72;4960642;28;20128;-61
2021/06/26 00:54:46;;;;;;;15.90;6.07;;;;;;;23.37;53.71;99099.78;4943817;28;20397;-61
2021/06/26 00:57:12;;;;;;;15.38;5.88;;;;;;;23.34;53.55;99089.38;4930704;28;20604;-60
2021/06/26 00:59:39;;;;;;;19.13;6.20;;;;;;;23.43;53.45;99101.03;4960845;28;20043;-61
2021/06/26 01:02:07;;;;;;;19.47;6.03;;;;;;;23.47;53.58;99101.88;4960799;28;20046;-61
2021/06/26 01:04:33;;;;;;;16.85;6.97;;;;;;;23.52;53.73;99100.75;4961443;28;20055;-61
2021/06/26 01:07:01;;;;;;;21.17;7.15;;;;;;;23.55;53.77;99099.19;4941904;28;20046;-61
2021/06/26 01:09:27;;;;;;;21.55;8.25;;;;;;;23.58;54.00;99093.66;4959740;28;20047;-61
2021/06/26 01:12:00;;;;;;;24.13;9.17;;;;;;;23.62;54.29;99088.09;4962177;28;20101;-62
2021/06/26 01:14:28;;;;;;;23.05;10.13;;;;;;;23.70;54.44;99091.78;4960318;28;20603;-61
2021/06/26 01:16:54;;;;;;;29.02;9.20;;;;;;;23.73;54.12;99102.19;4958913;28;20470;-61
2021/06/26 01:19:21;;;;;;;25.52;8.63;;;;;;;23.71;54.02;99112.91;4962686;28;20057;-60
2021/06/26 01:21:52;;;;;;;25.70;8.43;;;;;;;23.70;54.37;99114.91;4958000;28;20541;-61
2021/06/26 01:24:20;;;;;;;26.73;8.10;;;;;;;23.68;54.33;99111.72;4952999;28;20062;-62
2021/06/26 01:26:46;;;;;;;21.95;8.52;;;;;;;23.68;54.40;99116.47;4960092;28;20050;-62
2021/06/26 01:29:13;;;;;;;23.90;8.40;;;;;;;23.69;54.25;99118.88;4959134;28;20099;-61
2021/06/26 01:31:39;;;;;;;21.88;7.50;;;;;;;23.72;54.07;99115.34;4951223;28;20066;-61
2021/06/26 01:34:06;;;;;;;30.55;7.85;;;;;;;23.74;54.29;99104.59;4959403;28;20427;-61
2021/06/26 01:36:32;;;;;;;33.88;8.25;;;;;;;23.75;54.41;99114.56;4961432;28;20058;-61
2021/06/26 01:38:59;;;;;;;29.10;8.47;;;;;;;23.79;54.37;99112.59;4945532;28;20046;-61
2021/06/26 01:41:29;;;;;;;41.45;8.07;;;;;;;23.83;54.19;99106.28;4960534;28;20403;-62
2021/06/26 01:43:55;;;;;;;27.70;8.50;;;;;;;23.84;54.06;99110.69;4959432;28;20050;-62
2021/06/26 01:46:21;;;;;;;21.45;8.32;;;;;;;23.85;54.08;99101.13;4960612;28;20069;-61
2021/06/26 01:48:47;;;;;;;33.10;15.93;;;;;;;23.87;53.96;99109.91;4961316;28;20424;-62
2021/06/26 01:51:13;;;;;;;28.17;11.23;;;;;;;23.87;54.42;99105.13;4960522;28;20039;-62
2021/06/26 01:53:39;;;;;;;28.67;8.68;;;;;;;23.89;54.32;99101.97;4961108;28;20569;-61
2021/06/26 01:56:06;;;;;;;23.13;8.20;;;;;;;23.85;54.25;99085.16;4945595;28;20051;-62
2021/06/26 01:58:33;;;;;;;19.93;8.30;;;;;;;23.94;54.19;99098.81;4961782;28;20051;-61
2021/06/26 02:00:59;;;;;;;26.65;8.25;;;;;;;23.92;54.87;99088.06;4960682;28;20310;-62
2021/06/26 02:03:26;;;;;;;27.92;8.52;;;;;;;23.94;55.63;99082.06;4957803;28;20523;-61
2021/06/26 02:05:52;;;;;;;23.43;8.50;;;;;;;23.92;55.51;99088.06;4959199;28;20058;-61
2021/06/26 02:08:18;;;;;;;28.83;9.18;;;;;;;23.91;55.53;99088.41;4960121;28;20105;-62
2021/06/26 02:10:44;;;;;;;26.58;9.07;;;;;;;23.96;55.10;99095.66;4959412;28;20058;-62
2021/06/26 02:13:10;;;;;;;31.55;8.85;;;;;;;23.93;55.11;99086.88;4943202;28;20061;-62
2021/06/26 02:15:37;;;;;;;36.22;9.05;;;;;;;24.00;55.19;99088.09;4957196;28;20047;-61
2021/06/26 02:18:04;;;;;;;47.85;10.18;;;;;;;23.95;55.58;99075.28;4961450;28;20057;-61
2021/06/26 02:20:30;;;;;;;43.33;10.37;;;;;;;23.92;55.68;99078.84;4958889;28;20050;-61
2021/06/26 02:22:56;;;;;;;50.03;10.38;;;;;;;23.91;56.07;99080.03;4958430;28;20055;-61
2021/06/26 02:25:22;;;;;;;46.97;9.32;;;;;;;23.86;56.47;99074.81;4961360;28;20070;-62
2021/06/26 02:27:48;;;;;;;35.90;10.27;;;;;;;23.85;56.31;99074.00;4961199;28;20043;-62
2021/06/26 02:30:15;;;;;;;31.58;9.20;;;;;;;23.88;56.21;99075.25;4959374;28;20073;-61
2021/06/26 02:32:43;;;;;;;29.60;10.40;;;;;;;23.91;56.33;99068.88;4938639;28;20062;-62
2021/06/26 02:35:10;;;;;;;38.50;10.23;;;;;;;23.98;56.33;99079.31;4961120;28;20054;-62
2021/06/26 02:37:38;;;;;;;33.40;11.85;;;;;;;24.04;56.27;99080.59;4959014;28;20129;-61
2021/06/26 02:40:06;;;;;;;40.88;12.45;;;;;;;24.07;55.94;99071.47;4960371;28;20097;-62
2021/06/26 02:42:32;;;;;;;43.95;14.32;;;;;;;24.05;56.19;99080.22;4959723;28;20088;-62
2021/06/26 02:44:59;;;;;;;41.17;12.75;;;;;;;24.03;56.39;99084.56;4956982;28;20057;-60
2021/06/26 02:47:25;;;;;;;43.15;13.77;;;;;;;23.93;56.67;99084.06;4960113;28;20051;-63
2021/06/26 02:49:52;;;;;;;53.20;26.50;;;;;;;23.94;56.79;99087.66;4942656;28;20090;-62
2021/06/26 02:52:19;;;;;;;52.88;14.30;;;;;;;23.83;57.03;99075.59;4960796;28;20063;-62
2021/06/26 02:54:45;;;;;;;39.47;13.65;;;;;;;23.73;57.42;99074.31;4959371;28;20538;-61
2021/06/26 02:57:11;;;;;;;34.67;13.63;;;;;;;23.81;57.46;99075.19;4960185;28;20070;-62
2021/06/26 02:59:37;;;;;;;36.85;13.20;;;;;;;23.82;57.33;99083.16;4960672;28;20146;-63
2021/06/26 03:02:03;;;;;;;39.80;13.07;;;;;;;23.87;57.62;99088.38;4958906;28;20186;-63
2021/06/26 03:04:29;;;;;;;42.30;13.20;;;;;;;23.86;57.40;99077.63;4958372;28;20504;-60
2021/06/26 03:06:56;;;;;;;42.22;12.10;;;;;;;23.90;57.04;99089.59;4960164;28;20062;-60
2021/06/26 03:09:22;;;;;;;52.92;13.68;;;;;;;23.78;56.91;99060.00;4961340;28;20083;-61
2021/06/26 03:11:49;;;;;;;43.92;12.18;;;;;;;23.94;56.93;99073.69;4959647;28;20053;-61
2021/06/26 03:14:15;;;;;;;53.42;12.68;;;;;;;24.02;56.53;99078.22;4958826;28;20043;-60
2021/06/26 03:16:41;;;;;;;42.40;13.23;;;;;;;24.06;56.04;99075.47;4960646;28;20062;-61
2021/06/26 03:19:07;;;;;;;39.25;12.38;;;;;;;24.11;56.10;99079.88;4961329;28;20114;-62
2021/06/26 03:21:33;;;;;;;37.83;12.73;;;;;;;24.13;56.08;99071.94;4964652;28;20491;-60
2021/06/26 03:24:01;;;;;;;40.10;12.73;;;;;;;24.21;55.67;99070.78;4963515;28;20114;-61
2021/06/26 03:26:27;;;;;;;42.38;11.77;;;;;;;24.28;55.54;99079.25;4963131;28;20314;-62
2021/06/26 03:28:53;;;;;;;35.93;12.23;;;;;;;24.35;55.71;99073.72;4964378;28;20047;-61
2021/06/26 03:31:19;;;;;;;45.00;12.10;;;;;;;24.33;55.83;99067.72;4962437;28;20134;-61
2021/06/26 03:33:47;;;;;;;34.33;11.80;;;;;;;24.45;55.83;99077.00;4946989;28;20047;-62
2021/06/26 03:36:14;;;;;;;;;;;;;;;24.48;55.98;99081.78;4964644;28;20051;-62
2021/06/26 03:38:40;;;;;;;37.72;13.25;;;;;;;24.45;55.80;99074.19;4947189;28;19989;-62
2021/06/26 03:41:07;;;;;;;36.88;12.43;;;;;;;24.48;55.99;99071.41;4962845;28;20048;-61
2021/06/26 03:43:34;;;;;;;39.20;13.50;;;;;;;24.56;55.67;99071.47;4961996;28;20054;-60
2021/06/26 03:46:00;;;;;;;42.80;13.23;;;;;;;24.64;55.71;99075.91;4964125;28;20465;-63
2021/06/26 03:48:26;;;;;;;43.88;13.23;;;;;;;24.76;55.38;99072.06;4962479;28;20137;-63
2021/06/26 03:50:52;;;;;;;45.40;13.70;;;;;;;24.89;54.85;99078.13;4962111;28;20054;-62
2021/06/26 03:53:18;;;;;;;49.90;14.82;;;;;;;25.00;54.96;99073.38;4961983;28;20054;-61
2021/06/26 03:55:51;;;;;;;43.60;15.05;;;;;;;25.10;55.03;99076.63;4947251;28;20568;-61
2021/06/26 03:58:19;;;;;;;61.38;14.88;;;;;;;25.10;55.18;99076.63;4962719;28;20059;-62
2021/06/26 04:00:46;;;;;;;176.02;19.00;;;;;;;25.19;55.38;99074.28;4961618;28;20514;-61
2021/06/26 04:03:12;;;;;;;224.05;20.90;;;;;;;25.24;55.19;99079.50;4964003;28;20488;-62
2021/06/26 04:05:38;;;;;;;142.17;19.20;;;;;;;25.27;55.24;99073.09;4962929;28;20057;-62
2021/06/26 04:08:05;;;;;;;97.88;19.00;;;;;;;25.31;55.20;99073.94;4960843;28;20043;-62
2021/06/26 04:10:32;;;;;;;76.30;16.92;;;;;;;25.38;54.79;99078.78;4961124;28;20078;-62
2021/06/26 04:12:57;;;;;;;;;;;;;;;25.46;54.28;99077.59;4962695;28;20054;-62
2021/06/26 04:15:25;;;;;;;66.43;14.80;;;;;;;25.53;53.78;99081.66;4960893;28;20386;-60
2021/06/26 04:17:51;;;;;;;52.10;14.20;;;;;;;25.57;53.26;99076.88;4962172;28;20075;-61
2021/06/26 04:20:18;;;;;;;48.27;14.47;;;;;;;25.58;53.35;99075.66;4962123;28;20475;-62
2021/06/26 04:22:45;;;;;;;61.40;15.70;;;;;;;25.58;53.40;99068.06;4961082;28;20047;-63
2021/06/26 04:25:12;;;;;;;62.60;13.27;;;;;;;25.66;53.40;99076.50;4962659;28;20158;-61
2021/06/26 04:27:38;;;;;;;54.00;13.48;;;;;;;25.68;53.29;99066.50;4962170;28;20055;-61
2021/06/26 04:30:06;;;;;;;46.00;12.55;;;;;;;25.74;53.09;99075.28;4959155;28;20130;-61
2021/06/26 04:32:37;;;;;;;48.97;14.45;;;;;;;25.76;52.94;99075.72;4963269;28;20076;-62
2021/06/26 04:35:05;;;;;;;54.53;13.95;;;;;;;25.79;53.12;99080.53;4960815;28;20051;-62
2021/06/26 04:37:32;;;;;;;57.75;17.02;;;;;;;25.82;53.51;99087.31;4946178;28;20073;-62
2021/06/26 04:39:57;;;;;;;52.17;15.87;;;;;;;25.86;53.34;99086.13;4960013;28;20093;-63
2021/06/26 04:42:23;;;;;;;49.38;14.77;;;;;;;25.90;53.50;99088.94;4962204;28;20054;-60
2021/06/26 04:44:50;;;;;;;64.45;15.88;;;;;;;25.94;53.56;99086.16;4959481;28;20082;-61
2021/06/26 04:47:16;;;;;;;44.30;14.47;;;;;;;25.97;54.09;99082.56;4963791;28;20051;-61
2021/06/26 04:49:43;;;;;;;51.47;14.67;;;;;;;25.90;54.27;99091.75;4960789;28;20882;-62
2021/06/26 04:52:09;;;;;;;46.85;13.85;;;;;;;25.94;53.98;99088.97;4960479;28;20077;-61
2021/06/26 04:54:36;;;;;;;55.57;14.20;;;;;;;26.00;54.14;99087.34;4961376;28;20050;-62
2021/06/26 04:57:03;;;;;;;48.38;13.75;;;;;;;26.17;53.59;99078.22;4963030;28;20673;-62
2021/06/26 04:59:29;;;;;;;46.60;13.80;;;;;;;26.31;53.69;99080.22;4960967;28;20098;-62
2021/06/26 05:01:55;;;;;;;46.43;14.83;;;;;;;26.44;53.17;99091.81;4956659;28;20533;-62
2021/06/26 05:04:21;;;;;;;51.53;19.10;;;;;;;26.53;52.72;99085.81;4961860;28;20149;-61
2021/06/26 05:06:49;;;;;;;53.60;14.60;;;;;;;26.69;52.58;99090.22;4961550;28;20090;-63
2021/06/26 05:09:15;;;;;;;42.28;14.65;;;;;;;26.86;52.01;99085.81;4963115;28;20235;-63
2021/06/26 05:11:42;;;;;;;42.58;12.88;;;;;;;27.07;51.21;99090.56;4960456;28;20043;-62
2021/06/26 05:14:09;;;;;;;63.77;12.80;;;;;;;27.22;50.73;99094.13;4960600;28;20427;-62
2021/06/26 05:16:35;;;;;;;40.83;11.50;;;;;;;27.36;49.96;99092.47;4960865;28;20062;-63
2021/06/26 05:19:01;;;;;;;55.33;11.68;;;;;;;27.37;49.75;99086.44;4961590;28;20042;-60
2021/06/26 05:21:27;;;;;;;43.53;11.02;;;;;;;27.35;49.51;99086.06;4942517;28;20114;-62
2021/06/26 05:23:54;;;;;;;49.00;12.33;;;;;;;27.38;49.49;99084.47;4950571;28;20204;-62
2021/06/26 05:26:20;;;;;;;45.78;11.38;;;;;;;27.39;49.14;99078.41;4961840;28;20066;-62
2021/06/26 05:28:46;;;;;;;44.20;11.95;;;;;;;27.39;48.89;99084.03;4944054;28;20053;-62
2021/06/26 05:31:13;;;;;;;38.08;11.52;;;;;;;27.42;49.21;99088.03;4961487;28;20047;-62
2021/06/26 05:33:40;;;;;;;48.88;13.60;;;;;;;27.43;48.82;99079.22;4960239;28;20070;-63
2021/06/26 05:36:06;;;;;;;48.00;16.88;;;;;;;27.45;49.00;99076.81;4961580;28;20522;-61
2021/06/26 05:38:32;;;;;;;44.10;16.65;;;;;;;27.46;48.96;99074.78;4958886;28;20070;-61
2021/06/26 05:41:00;;;;;;;48.60;18.17;;;;;;;27.43;49.06;99070.81;4960050;28;20093;-62
2021/06/26 05:43:26;;;;;;;44.67;18.58;;;;;;;27.45;48.78;99079.63;4962042;28;20149;-63
2021/06/26 05:45:52;;;;;;;48.30;13.63;;;;;;;27.51;49.10;99080.00;4960850;28;20054;-62
2021/06/26 05:48:18;;;;;;;36.23;12.87;;;;;;;27.55;49.02;99074.38;4959778;28;20046;-62
2021/06/26 05:50:44;;;;;;;44.17;23.30;;;;;;;27.58;48.68;99079.19;4957282;28;20317;-62
2021/06/26 05:53:10;;;;;;;30.20;11.03;;;;;;;27.66;48.67;99079.94;4961192;28;20137;-61
2021/06/26 05:55:36;;;;;;;26.05;9.15;;;;;;;27.70;48.31;99075.91;4959368;28;20511;-61
2021/06/26 05:58:05;;;;;;;26.47;8.20;;;;;;;27.74;47.87;99070.25;4958805;28;20054;-61
2021/06/26 06:00:33;;;;;;;23.65;7.57;;;;;;;27.76;47.77;99075.47;4960297;28;20564;-62
2021/06/26 06:02:59;;;;;;;29.05;7.47;;;;;;;27.77;47.66;99071.47;4957443;28;20058;-61
2021/06/26 06:05:25;;;;;;;31.23;8.00;;;;;;;27.86;47.48;99072.59;4959007;28;20519;-62
2021/06/26 06:07:51;;;;;;;29.00;8.05;;;;;;;27.86;47.74;99069.78;4959883;28;20043;-62
2021/06/26 06:10:18;;;;;;;26.40;7.13;;;;;;;27.91;47.22;99068.56;4958558;28;20062;-62
2021/06/26 06:12:44;;;;;;;21.15;10.63;;;;;;;27.87;47.12;99050.94;4941675;28;20090;-62
2021/06/26 06:15:12;;;;;;;21.88;6.47;;;;;;;27.91;46.70;99062.94;4959746;28;20083;-62
2021/06/26 06:17:39;;;;;;;23.75;6.50;;;;;;;27.99;46.16;99060.91;4959340;28;20043;-62
2021/06/26 06:20:07;;;;;;;21.67;6.05;;;;;;;28.05;45.11;99067.66;4957934;28;20035;-61
2021/06/26 06:22:33;;;;;;;23.17;5.03;;;;;;;28.07;43.80;99056.81;4959177;28;20150;-63
2021/06/26 06:25:00;;;;;;;19.25;5.80;;;;;;;28.14;43.78;99051.16;4960043;28;20519;-62
2021/06/26 06:27:26;;;;;;;16.17;5.10;;;;;;;28.18;43.93;99059.59;4926914;28;20051;-60
2021/06/26 06:29:52;;;;;;;19.93;5.17;;;;;;;28.13;43.89;99052.38;4958021;28;20110;-63
2021/06/26 06:32:19;;;;;;;14.47;4.87;;;;;;;28.16;43.77;99056.34;4958638;28;20520;-63
2021/06/26 06:34:46;;;;;;;17.42;5.20;;;;;;;28.15;44.25;99054.75;4954156;28;20043;-62
2021/06/26 06:37:12;;;;;;;15.50;5.72;;;;;;;28.11;44.06;99054.78;4955277;28;20425;-62
2021/06/26 06:39:38;;;;;;;13.73;5.25;;;;;;;28.15;43.83;99049.94;4955960;28;20050;-64
2021/06/26 06:42:05;;;;;;;20.42;7.05;;;;;;;28.27;43.65;99059.91;4955412;28;20055;-64
2021/06/26 06:44:31;;;;;;;23.80;6.05;;;;;;;28.28;43.90;99052.28;4957485;28;20046;-65
2021/06/26 06:46:57;;;;;;;17.87;5.10;;;;;;;28.23;43.48;99056.31;4956940;28;20054;-62
2021/06/26 06:49:24;;;;;;;14.95;5.25;;;;;;;28.25;42.92;99051.09;4956326;28;20046;-62
2021/06/26 06:51:51;;;;;;;17.33;5.88;;;;;;;28.26;43.38;99049.88;4956307;28;20054;-62
2021/06/26 06:54:17;;;;;;;19.60;5.30;;;;;;;28.35;43.81;99052.22;4923138;28;20542;-63
2021/06/26 06:56:42;;;;;;;20.17;5.53;;;;;;;28.37;44.00;99052.59;4958156;28;20051;-63
2021/06/26 06:59:08;;;;;;;19.67;5.10;;;;;;;28.40;42.90;99053.78;4956522;28;20115;-62
2021/06/26 07:01:34;;;;;;;15.77;5.50;;;;;;;28.48;43.35;99052.47;4955868;28;20051;-63
2021/06/26 07:04:00;;;;;;;14.07;6.50;;;;;;;28.55;43.63;99052.44;4925366;28;20050;-63
2021/06/26 07:06:28;;;;;;;21.02;5.50;;;;;;;28.63;43.59;99049.53;4957035;28;20043;-62
2021/06/26 07:08:54;;;;;;;12.90;5.40;;;;;;;28.66;44.20;99038.25;4957604;28;20043;-62
2021/06/26 07:11:22;;;;;;;15.43;4.57;;;;;;;28.58;42.20;99037.53;4956874;28;20070;-63
2021/06/26 07:13:48;;;;;;;14.05;5.00;;;;;;;28.77;41.89;99046.59;4956828;28;20043;-62
2021/06/26 07:16:14;;;;;;;22.30;5.33;;;;;;;28.89;41.29;99044.50;4959066;28;20377;-62
2021/06/26 07:18:40;;;;;;;17.55;5.40;;;;;;;29.01;41.33;99041.94;4961151;28;20047;-62
2021/06/26 07:21:06;;;;;;;17.20;5.38;;;;;;;29.09;40.96;99045.44;4955756;28;20118;-62
2021/06/26 07:23:33;;;;;;;15.27;5.37;;;;;;;29.15;40.88;99042.97;4960632;28;20142;-63
2021/06/26 07:25:59;;;;;;;21.45;5.93;;;;;;;29.18;41.00;99044.94;4942289;28;20043;-61
2021/06/26 07:28:25;;;;;;;17.67;5.43;;;;;;;29.10;40.73;99032.19;4942226;28;20054;-63
2021/06/26 07:30:51;;;;;;;21.40;5.80;;;;;;;29.18;40.83;99039.31;4956926;28;20444;-62
2021/06/26 07:33:17;;;;;;;15.03;5.93;;;;;;;29.23;40.37;99047.31;4958577;28;20057;-62
2021/06/26 07:35:43;;;;;;;22.67;5.80;;;;;;;29.20;40.84;99048.16;4960171;28;20086;-62
2021/06/26 07:38:10;;;;;;;26.90;6.40;;;;;;;29.17;41.09;99051.78;4924008;28;20047;-63
2021/06/26 07:40:37;;;;;;;27.67;7.03;;;;;;;29.14;41.76;99047.81;4959458;28;20061;-63
2021/06/26 07:43:03;;;;;;;29.77;7.25;;;;;;;29.08;41.39;99055.13;4923641;28;20137;-63
2021/06/26 07:45:29;;;;;;;18.67;7.27;;;;;;;29.09;41.21;99056.72;4957202;28;20053;-63
2021/06/26 07:47:55;;;;;;;18.80;5.88;;;;;;;28.89;42.13;99062.19;4955628;28;20039;-62
2021/06/26 07:50:21;;;;;;;21.73;6.40;;;;;;;28.76;42.41;99058.25;4958518;28;20614;-63
2021/06/26 07:52:47;;;;;;;25.10;6.30;;;;;;;28.60;41.24;99062.44;4955351;28;20504;-64
2021/06/26 07:55:14;;;;;;;19.90;5.70;;;;;;;28.43;39.45;99061.38;4956549;28;20050;-64
2021/06/26 07:57:42;;;;;;;21.13;4.87;;;;;;;28.14;39.16;99053.16;4956774;28;20054;-62
2021/06/26 08:00:09;;;;;;;23.83;6.10;;;;;;;28.58;39.19;99060.03;4953296;28;20701;-64
2021/06/26 08:02:35;;;;;;;21.83;5.43;;;;;;;28.71;38.38;99059.50;4955695;28;20145;-64
2021/06/26 08:05:02;;;;;;;21.50;5.47;;;;;;;28.60;38.84;99062.44;4924800;28;20051;-64
2021/06/26 08:07:28;;;;;;;30.83;7.47;;;;;;;28.90;39.09;99052.53;4962219;28;20133;-62
2021/06/26 08:09:54;;;;;;;28.48;5.38;;;;;;;28.53;40.07;99045.63;4931177;28;20043;-61
2021/06/26 08:12:21;;;;;;;24.42;5.13;;;;;;;28.56;39.53;99051.22;4961826;28;20074;-62
2021/06/26 08:14:48;;;;;;;16.95;5.35;;;;;;;28.66;38.69;99051.53;4963200;28;20054;-62
2021/06/26 08:17:15;;;;;;;19.27;5.65;;;;;;;28.36;39.48;99058.63;4963256;28;20051;-62
2021/06/26 08:19:42;;;;;;;21.40;4.45;;;;;;;28.23;39.20;99044.28;4962244;28;20194;-63
2021/06/26 08:22:09;;;;;;;18.60;5.10;;;;;;;28.36;39.34;99042.56;4961703;28;20061;-63
2021/06/26 08:24:35;;;;;;;27.25;5.90;;;;;;;28.61;39.00;99047.16;4962312;28;20083;-62
2021/06/26 08:27:03;;;;;;;24.05;5.90;;;;;;;28.97;38.92;99048.84;4960659;28;20051;-64
2021/06/26 08:29:29;;;;;;;20.73;5.70;;;;;;;28.94;39.13;99056.09;4944767;28;20051;-64
2021/06/26 08:31:56;;;;;;;18.70;5.47;;;;;;;29.10;38.82;99049.06;4962772;28;20709;-64
2021/06/26 08:34:22;;;;;;;21.42;6.60;;;;;;;29.12;38.90;99050.25;4962731;28;20063;-64
2021/06/26 08:36:50;;;;;;;22.37;5.57;;;;;;;28.79;38.92;99040.56;4962901;28;20051;-63
2021/06/26 08:39:19;;;;;;;21.70;5.82;;;;;;;28.85;39.35;99036.09;4963255;28;20401;-62
2021/06/26 08:41:47;;;;;;;29.50;7.68;;;;;;;29.25;38.33;99033.63;4962051;28;20487;-63
2021/06/26 08:44:13;;;;;;;23.67;7.05;;;;;;;29.44;38.11;99034.19;4961658;28;20500;-64
2021/06/26 08:46:43;;;;;;;22.20;7.32;;;;;;;29.54;38.09;99026.81;4960891;28;20150;-61
2021/06/26 08:49:10;;;;;;;26.65;6.15;;;;;;;29.68;37.38;99029.44;4961899;28;20047;-64
2021/06/26 08:51:37;;;;;;;20.63;5.55;;;;;;;29.65;37.75;99029.47;4960009;28;20513;-64
2021/06/26 08:54:04;;;;;;;16.05;5.40;;;;;;;29.70;36.90;99027.00;4958747;28;20052;-61
2021/06/26 08:56:30;;;;;;;16.92;5.25;;;;;;;29.94;35.95;99031.88;4959590;28;20055;-63
2021/06/26 08:58:56;;;;;;;16.25;5.10;;;;;;;29.83;35.92;99026.41;4940401;28;20097;-64
2021/06/26 09:01:22;;;;;;;18.07;5.20;;;;;;;29.98;36.29;99024.97;4953433;28;20150;-64
2021/06/26 09:03:48;;;;;;;14.90;5.03;;;;;;;29.95;35.65;99033.47;4957724;28;20046;-63
2021/06/26 09:06:15;;;;;;;18.47;5.43;;;;;;;30.11;35.76;99030.81;4959609;28;20047;-63
2021/06/26 09:08:48;;;;;;;18.08;5.13;;;;;;;30.21;34.81;99025.44;4959490;28;20684;-62
2021/06/26 09:11:18;;;;;;;15.48;4.93;;;;;;;30.11;33.74;99027.22;4958902;28;20042;-63
2021/06/26 09:13:44;;;;;;;20.52;4.97;;;;;;;30.09;34.04;99016.34;4940834;28;20051;-63
2021/06/26 09:16:12;;;;;;;16.07;5.40;;;;;;;30.08;33.74;99020.41;4953767;28;20624;-66
2021/06/26 09:18:40;;;;;;;20.25;5.38;;;;;;;30.13;33.51;99010.66;4954986;28;20310;-64
2021/06/26 09:21:22;;;;;;;20.73;5.78;;;;;;;30.25;34.35;99012.06;4956137;28;20047;-62
2021/06/26 09:24:07;;;;;;;25.25;6.03;;;;;;;30.36;35.11;99021.16;4958002;28;20050;-64
2021/06/26 09:26:35;;;;;;;25.15;5.18;;;;;;;30.40;34.01;99007.00;4955688;28;20078;-64
2021/06/26 09:29:08;;;;;;;21.73;5.13;;;;;;;29.94;34.70;99014.97;4957106;28;20051;-62
2021/06/26 09:31:34;;;;;;;14.98;4.88;;;;;;;29.78;34.26;99013.59;4953224;28;20059;-62
2021/06/26 09:34:03;;;;;;;19.10;5.60;;;;;;;30.16;33.83;99014.66;4956351;28;20519;-61
2021/06/26 09:36:32;;;;;;;22.60;6.00;;;;;;;30.41;34.21;99000.13;4958255;28;20198;-61
2021/06/26 09:38:59;;;;;;;24.40;5.40;;;;;;;30.39;34.03;99005.41;4959025;28;20051;-63
2021/06/26 09:41:26;;;;;;;23.20;5.47;;;;;;;30.50;33.86;99008.81;4957087;28;20528;-62
2021/06/26 09:43:52;;;;;;;22.30;6.15;;;;;;;30.63;33.26;98996.94;4958003;28;20054;-62
2021/06/26 09:46:19;;;;;;;18.85;6.10;;;;;;;30.58;33.79;99001.00;4956738;28;20054;-61
2021/06/26 09:48:51;;;;;;;23.35;6.05;;;;;;;30.83;33.74;98991.31;4959035;28;20050;-61
2021/06/26 09:51:22;;;;;;;21.08;6.25;;;;;;;30.98;34.05;99001.06;4958669;28;20134;-61
2021/06/26 09:53:55;;;;;;;22.77;6.53;;;;;;;31.02;34.64;99001.00;4958074;28;20054;-60
2021/06/26 09:56:22;;;;;;;24.77;6.35;;;;;;;30.91;34.46;98992.78;4955448;28;20460;-60
2021/06/26 09:58:53;;;;;;;24.40;6.80;;;;;;;31.04;34.63;98990.06;4956669;28;20066;-60
2021/06/26 10:01:20;;;;;;;24.42;6.47;;;;;;;30.79;34.55;98993.41;4957812;28;20388;-61
2021/06/26 10:03:48;;;;;;;21.27;6.85;;;;;;;30.85;34.40;98991.66;4958522;28;20095;-62
2021/06/26 10:06:18;;;;;;;20.95;6.47;;;;;;;30.90;33.76;98982.69;4959462;28;20492;-60
2021/06/26 10:08:46;;;;;;;25.92;6.30;;;;;;;30.88;33.77;98981.56;4926276;28;20047;-63
2021/06/26 10:11:14;;;;;;;24.23;6.88;;;;;;;31.05;33.86;98988.03;4926333;28;20043;-62
2021/06/26 10:13:41;;;;;;;19.50;6.20;;;;;;;30.97;33.98;98979.72;4938680;28;20078;-63
2021/06/26 10:16:07;;;;;;;30.23;6.63;;;;;;;31.11;34.45;98986.31;4956324;28;20057;-64
2021/06/26 10:18:35;;;;;;;17.42;6.40;;;;;;;31.12;34.00;98968.94;4959999;28;20117;-66
2021/06/26 10:21:01;;;;;;;16.13;7.05;;;;;;;31.35;33.85;98987.03;4960666;28;20053;-65
2021/06/26 10:23:32;;;;;;;19.42;6.40;;;;;;;31.23;33.65;98990.53;4961284;28;20055;-67
2021/06/26 10:26:00;;;;;;;20.70;6.95;;;;;;;31.08;32.85;98973.84;4957280;28;20051;-67
2021/06/26 10:28:28;;;;;;;22.77;7.13;;;;;;;31.17;33.49;98981.72;4958969;28;20134;-66
2021/06/26 10:30:59;;;;;;;19.15;6.85;;;;;;;31.37;33.17;98986.56;4941240;28;20043;-67
2021/06/26 10:33:26;;;;;;;22.85;6.95;;;;;;;31.46;33.79;98983.97;4958953;28;20047;-62
2021/06/26 10:35:54;;;;;;;25.25;6.97;;;;;;;31.48;33.38;98978.66;4961068;28;20043;-62
2021/06/26 10:38:21;;;;;;;20.08;6.63;;;;;;;31.47;32.98;98977.06;4960050;28;20535;-63
2021/06/26 10:40:49;;;;;;;17.88;5.97;;;;;;;31.58;32.89;98973.22;4960559;28;20051;-64
2021/06/26 10:43:21;;;;;;;19.23;6.47;;;;;;;31.58;32.42;98976.81;4957243;28;20171;-62
2021/06/26 10:45:51;;;;;;;18.10;7.72;;;;;;;31.66;32.43;98972.59;4959895;28;20141;-63
2021/06/26 10:48:19;;;;;;;26.67;6.97;;;;;;;31.67;32.66;98976.22;4960132;28;20058;-64
2021/06/26 10:50:47;;;;;;;14.75;5.88;;;;;;;31.60;33.02;98965.88;4959329;28;20054;-64
2021/06/26 10:53:29;;;;;;;26.30;7.07;;;;;;;31.74;32.60;98975.25;4958964;28;20145;-64
2021/06/26 10:56:00;;;;;;;21.27;7.20;;;;;;;31.79;32.42;98977.59;4957552;28;20047;-61
2021/06/26 10:58:27;;;;;;;18.70;6.38;;;;;;;31.84;32.66;98982.72;4956883;28;20055;-63
2021/06/26 11:00:55;;;;;;;18.98;6.80;;;;;;;31.95;31.94;98979.59;4960446;28;20058;-62
2021/06/26 11:03:24;;;;;;;24.40;6.63;;;;;;;31.97;31.99;98977.13;4958237;28;20047;-65
2021/06/26 11:05:50;;;;;;;19.27;6.05;;;;;;;32.03;30.82;98981.03;4959298;28;20495;-63
2021/06/26 11:08:18;;;;;;;20.48;7.10;;;;;;;32.07;31.22;98978.91;4958976;28;20101;-63
2021/06/26 11:10:52;;;;;;;23.70;8.40;;;;;;;32.04;31.72;98968.50;4958802;28;20146;-61
2021/06/26 11:13:19;;;;;;;14.95;6.53;;;;;;;32.02;31.85;98965.31;4959321;28;20522;-63
2021/06/26 11:15:45;;;;;;;26.58;6.68;;;;;;;32.07;31.30;98959.13;4953316;28;20129;-62
2021/06/26 11:18:15;;;;;;;20.63;8.32;;;;;;;32.11;31.23;98956.22;4957039;28;20051;-63
2021/06/26 11:20:42;;;;;;;25.20;7.10;;;;;;;31.99;30.06;98929.44;4954897;28;20054;-64
2021/06/26 11:23:08;;;;;;;27.58;6.18;;;;;;;32.13;30.44;98939.59;4925907;28;20079;-64